Key West Nas /Boca Chica Field/ Airport
KNQX : rendu visible

Aérodrome :











RETROUVEZ-NOUS SUR...

 
LOGIN :

S'inscrire | Disclaimer

   EN    FR    IT 

 









Légende :    VFR   VFR Marginal   IFR   IFR Intensif   IFR Très Intensif
Visi : 
Plafond : 
>= 8 km
>= 3000ft
5 à 8 km
1000 à 3000 ft
1500m à 5 km
500 à 1000 ft
800 à 1500m
200 à 500 ft
< 800m
< 200 ft
Symboles :   Orages  Brouillard  Fortes neiges  Fortes précipitations  Vent > 20 kt






- Altitude de l'aérodrome : 6 ft


KNQX - Key West Nas /Boca Chica Field/

DERNIER METAR :
  • 100653Z AUTO 12011KT 10SM CLR 26/22 A3006 RMK AO2 SLP176 T02610222 $

METARs EXPIRÉS :
  • 100553Z AUTO 12010KT 10SM BKN060 26/22 A3007 RMK AO2 SLP179 T02610222 10261 20256 58005 $
  • 100453Z AUTO 11011KT 10SM FEW060 26/22 A3007 RMK AO2 SLP181 T02610222 402940228 $

TAF TAF KNQX
Valide du 10 à 07h jusqu'au 11 à 07h UTC


1007/1107 12010KT 9999 FEW020 SCT070 QNH3000INS
FM101400 12012KT 9999 SCT020 SCT070 QNH2997INS
FM110400 11007KT 9999 FEW070 QNH3001INS AUTOMATED SENSOR METWATCH 1007 TIL 1011 T24/1011Z T29/1019Z FN00085



MET'MAP, la Météo Aéronautique d'un coup d'oeil ! - Copyright ORBIFLY Décembre 2007 - Disclaimer

ORBIFLY MET'MAP TEAM :

Programmation & Développement : Alexandra Zaïnal
Sur une idée originale de : Baudouin d'Aumeries
Assistance à la programmation : Marc-Olivier Méhu
Soutien technique & logistique : Manuel Goepfert

Contact : metmap@orbifly.com




SOURCES & CREDITS :

   NOAA       Earth
Advisory